sensor_id;sensor_type;location;lat;lon;timestamp;temperature;humidity
66190;DHT22;52992;52.084;5.412;2023-01-29T00:01:51;8.30;55.60
66190;DHT22;52992;52.084;5.412;2023-01-29T00:04:18;8.20;55.40
66190;DHT22;52992;52.084;5.412;2023-01-29T00:06:46;8.30;55.40
66190;DHT22;52992;52.084;5.412;2023-01-29T00:09:13;8.20;55.50
66190;DHT22;52992;52.084;5.412;2023-01-29T00:11:40;8.20;55.50
66190;DHT22;52992;52.084;5.412;2023-01-29T00:14:07;8.20;55.40
66190;DHT22;52992;52.084;5.412;2023-01-29T00:16:34;8.20;55.40
66190;DHT22;52992;52.084;5.412;2023-01-29T00:19:01;8.20;55.60
66190;DHT22;52992;52.084;5.412;2023-01-29T00:21:28;8.20;55.60
66190;DHT22;52992;52.084;5.412;2023-01-29T00:23:59;8.10;55.60
66190;DHT22;52992;52.084;5.412;2023-01-29T00:26:26;8.10;55.90
66190;DHT22;52992;52.084;5.412;2023-01-29T00:28:54;8.10;56.00
66190;DHT22;52992;52.084;5.412;2023-01-29T00:31:24;8.10;55.90
66190;DHT22;52992;52.084;5.412;2023-01-29T00:33:52;8.10;56.00
66190;DHT22;52992;52.084;5.412;2023-01-29T00:36:20;8.10;55.90
66190;DHT22;52992;52.084;5.412;2023-01-29T00:38:56;8.10;55.90
66190;DHT22;52992;52.084;5.412;2023-01-29T00:41:30;8.10;55.80
66190;DHT22;52992;52.084;5.412;2023-01-29T00:44:17;8.10;55.90
66190;DHT22;52992;52.084;5.412;2023-01-29T00:47:04;8.10;56.00
66190;DHT22;52992;52.084;5.412;2023-01-29T00:49:51;8.10;55.90
66190;DHT22;52992;52.084;5.412;2023-01-29T00:52:18;8.20;55.90
66190;DHT22;52992;52.084;5.412;2023-01-29T00:54:55;8.10;55.80
66190;DHT22;52992;52.084;5.412;2023-01-29T00:57:24;8.20;55.80
66190;DHT22;52992;52.084;5.412;2023-01-29T00:59:52;8.20;55.80
66190;DHT22;52992;52.084;5.412;2023-01-29T01:02:19;8.20;55.90
66190;DHT22;52992;52.084;5.412;2023-01-29T01:05:06;8.20;55.90
66190;DHT22;52992;52.084;5.412;2023-01-29T01:07:35;8.20;55.90
66190;DHT22;52992;52.084;5.412;2023-01-29T01:10:02;8.20;55.90
66190;DHT22;52992;52.084;5.412;2023-01-29T01:12:55;8.20;55.80
66190;DHT22;52992;52.084;5.412;2023-01-29T01:15:24;8.20;55.80
66190;DHT22;52992;52.084;5.412;2023-01-29T01:17:56;8.20;55.90
66190;DHT22;52992;52.084;5.412;2023-01-29T01:20:25;8.10;56.10
66190;DHT22;52992;52.084;5.412;2023-01-29T01:22:53;8.10;56.20
66190;DHT22;52992;52.084;5.412;2023-01-29T01:25:22;8.20;56.20
66190;DHT22;52992;52.084;5.412;2023-01-29T01:27:55;8.10;56.20
66190;DHT22;52992;52.084;5.412;2023-01-29T01:30:23;8.10;56.10
66190;DHT22;52992;52.084;5.412;2023-01-29T01:32:50;8.20;56.10
66190;DHT22;52992;52.084;5.412;2023-01-29T01:35:17;8.20;56.10
66190;DHT22;52992;52.084;5.412;2023-01-29T01:37:44;8.20;56.00
66190;DHT22;52992;52.084;5.412;2023-01-29T01:40:14;8.20;55.90
66190;DHT22;52992;52.084;5.412;2023-01-29T01:42:47;8.20;55.90
66190;DHT22;52992;52.084;5.412;2023-01-29T01:45:19;8.20;56.00
66190;DHT22;52992;52.084;5.412;2023-01-29T01:47:50;8.10;56.10
66190;DHT22;52992;52.084;5.412;2023-01-29T01:53:08;8.10;56.20
66190;DHT22;52992;52.084;5.412;2023-01-29T01:55:43;8.10;56.20
66190;DHT22;52992;52.084;5.412;2023-01-29T01:58:56;8.10;56.20
66190;DHT22;52992;52.084;5.412;2023-01-29T02:01:06;8.10;56.30
66190;DHT22;52992;52.084;5.412;2023-01-29T02:03:42;8.10;56.20
66190;DHT22;52992;52.084;5.412;2023-01-29T02:06:30;8.20;56.20
66190;DHT22;52992;52.084;5.412;2023-01-29T02:09:21;8.20;56.10
66190;DHT22;52992;52.084;5.412;2023-01-29T02:12:12;8.20;56.20
66190;DHT22;52992;52.084;5.412;2023-01-29T02:14:42;8.20;56.10
66190;DHT22;52992;52.084;5.412;2023-01-29T02:17:14;8.20;56.10
66190;DHT22;52992;52.084;5.412;2023-01-29T02:31:12;8.10;56.40
66190;DHT22;52992;52.084;5.412;2023-01-29T02:36:52;8.10;56.20
66190;DHT22;52992;52.084;5.412;2023-01-29T02:42:29;8.20;56.20
66190;DHT22;52992;52.084;5.412;2023-01-29T02:45:18;8.10;56.20
66190;DHT22;52992;52.084;5.412;2023-01-29T02:47:57;8.20;56.20
66190;DHT22;52992;52.084;5.412;2023-01-29T02:50:31;8.20;56.10
66190;DHT22;52992;52.084;5.412;2023-01-29T02:53:31;8.20;56.00
66190;DHT22;52992;52.084;5.412;2023-01-29T02:55:59;8.20;56.10
66190;DHT22;52992;52.084;5.412;2023-01-29T02:58:54;8.20;56.10
66190;DHT22;52992;52.084;5.412;2023-01-29T03:01:30;8.20;56.00
66190;DHT22;52992;52.084;5.412;2023-01-29T03:04:03;8.30;55.90
66190;DHT22;52992;52.084;5.412;2023-01-29T03:06:37;8.30;55.80
66190;DHT22;52992;52.084;5.412;2023-01-29T03:12:15;8.20;56.00
66190;DHT22;52992;52.084;5.412;2023-01-29T03:15:05;8.20;56.00
66190;DHT22;52992;52.084;5.412;2023-01-29T03:17:54;8.30;56.10
66190;DHT22;52992;52.084;5.412;2023-01-29T03:20:27;8.30;55.80
66190;DHT22;52992;52.084;5.412;2023-01-29T03:23:04;8.30;55.80
66190;DHT22;52992;52.084;5.412;2023-01-29T03:25:38;8.30;55.90
66190;DHT22;52992;52.084;5.412;2023-01-29T03:28:29;8.30;55.80
66190;DHT22;52992;52.084;5.412;2023-01-29T03:31:16;8.30;55.80
66190;DHT22;52992;52.084;5.412;2023-01-29T03:34:08;8.30;55.80
66190;DHT22;52992;52.084;5.412;2023-01-29T03:36:48;8.40;55.80
66190;DHT22;52992;52.084;5.412;2023-01-29T03:39:24;8.40;55.90
66190;DHT22;52992;52.084;5.412;2023-01-29T03:41:59;8.40;56.60
66190;DHT22;52992;52.084;5.412;2023-01-29T03:44:59;8.40;55.90
66190;DHT22;52992;52.084;5.412;2023-01-29T03:47:50;8.40;55.90
66190;DHT22;52992;52.084;5.412;2023-01-29T03:55:54;8.30;56.00
66190;DHT22;52992;52.084;5.412;2023-01-29T04:01:25;8.30;56.70
66190;DHT22;52992;52.084;5.412;2023-01-29T04:04:04;8.30;56.10
66190;DHT22;52992;52.084;5.412;2023-01-29T04:06:35;8.30;56.10
66190;DHT22;52992;52.084;5.412;2023-01-29T04:09:30;8.30;56.10
66190;DHT22;52992;52.084;5.412;2023-01-29T04:12:08;8.30;56.20
66190;DHT22;52992;52.084;5.412;2023-01-29T04:14:38;8.30;56.20
66190;DHT22;52992;52.084;5.412;2023-01-29T04:17:13;8.30;56.10
66190;DHT22;52992;52.084;5.412;2023-01-29T04:19:52;8.30;56.20
66190;DHT22;52992;52.084;5.412;2023-01-29T04:22:26;8.30;56.20
66190;DHT22;52992;52.084;5.412;2023-01-29T04:24:57;8.20;56.10
66190;DHT22;52992;52.084;5.412;2023-01-29T04:30:22;8.10;56.20
66190;DHT22;52992;52.084;5.412;2023-01-29T04:33:08;8.10;56.30
66190;DHT22;52992;52.084;5.412;2023-01-29T04:50:04;8.00;56.30
66190;DHT22;52992;52.084;5.412;2023-01-29T04:52:59;7.90;56.40
66190;DHT22;52992;52.084;5.412;2023-01-29T04:58:11;7.90;56.30
66190;DHT22;52992;52.084;5.412;2023-01-29T05:00:42;8.00;56.20
66190;DHT22;52992;52.084;5.412;2023-01-29T05:03:12;7.90;56.20
66190;DHT22;52992;52.084;5.412;2023-01-29T05:05:42;8.00;56.20
66190;DHT22;52992;52.084;5.412;2023-01-29T05:08:13;8.00;56.10
66190;DHT22;52992;52.084;5.412;2023-01-29T05:10:41;7.90;56.10
66190;DHT22;52992;52.084;5.412;2023-01-29T05:13:11;8.00;56.20
66190;DHT22;52992;52.084;5.412;2023-01-29T05:15:43;7.90;56.00
66190;DHT22;52992;52.084;5.412;2023-01-29T05:18:10;7.90;56.20
66190;DHT22;52992;52.084;5.412;2023-01-29T05:20:39;7.90;56.20
66190;DHT22;52992;52.084;5.412;2023-01-29T05:23:17;7.90;56.10
66190;DHT22;52992;52.084;5.412;2023-01-29T05:25:45;7.90;56.00
66190;DHT22;52992;52.084;5.412;2023-01-29T05:28:12;7.90;56.00
66190;DHT22;52992;52.084;5.412;2023-01-29T05:30:53;7.90;56.00
66190;DHT22;52992;52.084;5.412;2023-01-29T05:33:23;7.90;55.90
66190;DHT22;52992;52.084;5.412;2023-01-29T05:35:51;8.00;55.80
66190;DHT22;52992;52.084;5.412;2023-01-29T05:38:18;7.90;55.80
66190;DHT22;52992;52.084;5.412;2023-01-29T05:40:45;7.90;55.90
66190;DHT22;52992;52.084;5.412;2023-01-29T05:43:18;7.90;56.00
66190;DHT22;52992;52.084;5.412;2023-01-29T05:45:53;7.90;56.00
66190;DHT22;52992;52.084;5.412;2023-01-29T05:48:21;7.90;55.90
66190;DHT22;52992;52.084;5.412;2023-01-29T05:50:48;7.90;55.90
66190;DHT22;52992;52.084;5.412;2023-01-29T05:53:15;8.00;55.90
66190;DHT22;52992;52.084;5.412;2023-01-29T05:55:46;7.90;55.90
66190;DHT22;52992;52.084;5.412;2023-01-29T05:58:13;8.00;55.80
66190;DHT22;52992;52.084;5.412;2023-01-29T06:00:40;8.00;55.80
66190;DHT22;52992;52.084;5.412;2023-01-29T06:03:07;8.00;55.60
66190;DHT22;52992;52.084;5.412;2023-01-29T06:05:37;8.00;55.50
66190;DHT22;52992;52.084;5.412;2023-01-29T06:08:04;8.10;55.60
66190;DHT22;52992;52.084;5.412;2023-01-29T06:10:31;8.00;55.50
66190;DHT22;52992;52.084;5.412;2023-01-29T06:12:58;8.00;55.50
66190;DHT22;52992;52.084;5.412;2023-01-29T06:15:25;8.00;55.50
66190;DHT22;52992;52.084;5.412;2023-01-29T06:17:53;8.00;55.50
66190;DHT22;52992;52.084;5.412;2023-01-29T06:20:20;8.00;55.50
66190;DHT22;52992;52.084;5.412;2023-01-29T06:22:46;8.00;55.50
66190;DHT22;52992;52.084;5.412;2023-01-29T06:25:13;8.00;55.50
66190;DHT22;52992;52.084;5.412;2023-01-29T06:27:40;8.00;55.50
66190;DHT22;52992;52.084;5.412;2023-01-29T06:30:07;8.00;55.60
66190;DHT22;52992;52.084;5.412;2023-01-29T06:32:34;8.00;55.40
66190;DHT22;52992;52.084;5.412;2023-01-29T06:35:01;8.00;55.50
66190;DHT22;52992;52.084;5.412;2023-01-29T06:37:29;8.00;55.50
66190;DHT22;52992;52.084;5.412;2023-01-29T06:39:56;8.00;55.40
66190;DHT22;52992;52.084;5.412;2023-01-29T06:42:23;7.90;55.50
66190;DHT22;52992;52.084;5.412;2023-01-29T06:44:54;7.90;55.50
66190;DHT22;52992;52.084;5.412;2023-01-29T06:47:22;7.90;55.50
66190;DHT22;52992;52.084;5.412;2023-01-29T06:49:49;7.90;55.50
66190;DHT22;52992;52.084;5.412;2023-01-29T06:52:16;7.90;55.40
66190;DHT22;52992;52.084;5.412;2023-01-29T06:54:43;7.90;55.50
66190;DHT22;52992;52.084;5.412;2023-01-29T06:57:10;7.90;55.60
66190;DHT22;52992;52.084;5.412;2023-01-29T06:59:37;7.90;56.20
66190;DHT22;52992;52.084;5.412;2023-01-29T07:02:04;7.90;55.50
66190;DHT22;52992;52.084;5.412;2023-01-29T07:04:31;7.90;55.50
66190;DHT22;52992;52.084;5.412;2023-01-29T07:06:58;7.90;55.50
66190;DHT22;52992;52.084;5.412;2023-01-29T07:09:25;7.90;55.50
66190;DHT22;52992;52.084;5.412;2023-01-29T07:11:52;8.00;55.50
66190;DHT22;52992;52.084;5.412;2023-01-29T07:14:19;7.90;55.60
66190;DHT22;52992;52.084;5.412;2023-01-29T07:16:46;7.90;55.60
66190;DHT22;52992;52.084;5.412;2023-01-29T07:19:13;7.90;55.60
66190;DHT22;52992;52.084;5.412;2023-01-29T07:21:40;7.90;55.60
66190;DHT22;52992;52.084;5.412;2023-01-29T07:24:07;7.90;55.50
66190;DHT22;52992;52.084;5.412;2023-01-29T07:26:34;7.90;55.40
66190;DHT22;52992;52.084;5.412;2023-01-29T07:29:03;7.90;55.50
66190;DHT22;52992;52.084;5.412;2023-01-29T07:31:30;7.80;55.40
66190;DHT22;52992;52.084;5.412;2023-01-29T07:33:57;7.80;55.40
66190;DHT22;52992;52.084;5.412;2023-01-29T07:36:24;7.80;55.30
66190;DHT22;52992;52.084;5.412;2023-01-29T07:38:52;7.90;55.50
66190;DHT22;52992;52.084;5.412;2023-01-29T07:41:19;7.80;55.40
66190;DHT22;52992;52.084;5.412;2023-01-29T07:43:46;7.90;55.50
66190;DHT22;52992;52.084;5.412;2023-01-29T07:46:13;7.90;55.40
66190;DHT22;52992;52.084;5.412;2023-01-29T07:48:40;7.90;55.40
66190;DHT22;52992;52.084;5.412;2023-01-29T07:51:07;7.90;55.40
66190;DHT22;52992;52.084;5.412;2023-01-29T07:53:34;8.00;55.20
66190;DHT22;52992;52.084;5.412;2023-01-29T07:56:02;8.00;55.20
66190;DHT22;52992;52.084;5.412;2023-01-29T07:58:29;7.90;55.20
66190;DHT22;52992;52.084;5.412;2023-01-29T08:00:57;8.00;55.20
66190;DHT22;52992;52.084;5.412;2023-01-29T08:03:23;8.00;55.10
66190;DHT22;52992;52.084;5.412;2023-01-29T08:05:50;8.00;55.10
66190;DHT22;52992;52.084;5.412;2023-01-29T08:08:17;7.90;55.10
66190;DHT22;52992;52.084;5.412;2023-01-29T08:10:45;8.00;55.30
66190;DHT22;52992;52.084;5.412;2023-01-29T08:13:11;8.00;55.20
66190;DHT22;52992;52.084;5.412;2023-01-29T08:15:44;7.90;55.30
66190;DHT22;52992;52.084;5.412;2023-01-29T08:18:12;8.00;55.20
66190;DHT22;52992;52.084;5.412;2023-01-29T08:20:39;8.00;55.10
66190;DHT22;52992;52.084;5.412;2023-01-29T08:23:11;8.00;55.10
66190;DHT22;52992;52.084;5.412;2023-01-29T08:25:39;8.00;55.00
66190;DHT22;52992;52.084;5.412;2023-01-29T08:28:06;8.00;54.90
66190;DHT22;52992;52.084;5.412;2023-01-29T08:30:33;8.10;55.00
66190;DHT22;52992;52.084;5.412;2023-01-29T08:33:02;8.10;54.90
66190;DHT22;52992;52.084;5.412;2023-01-29T08:35:29;8.10;54.80
66190;DHT22;52992;52.084;5.412;2023-01-29T08:38:01;8.20;54.80
66190;DHT22;52992;52.084;5.412;2023-01-29T08:40:31;8.20;54.80
66190;DHT22;52992;52.084;5.412;2023-01-29T08:42:59;8.20;54.80
66190;DHT22;52992;52.084;5.412;2023-01-29T08:45:29;8.20;54.70
66190;DHT22;52992;52.084;5.412;2023-01-29T08:47:56;8.20;54.80
66190;DHT22;52992;52.084;5.412;2023-01-29T08:50:23;8.20;54.60
66190;DHT22;52992;52.084;5.412;2023-01-29T08:52:50;8.20;54.70
66190;DHT22;52992;52.084;5.412;2023-01-29T08:55:17;8.20;54.70
66190;DHT22;52992;52.084;5.412;2023-01-29T08:57:44;8.30;54.80
66190;DHT22;52992;52.084;5.412;2023-01-29T09:00:11;8.30;54.70
66190;DHT22;52992;52.084;5.412;2023-01-29T09:02:38;8.30;54.60
66190;DHT22;52992;52.084;5.412;2023-01-29T09:05:05;8.30;54.50
66190;DHT22;52992;52.084;5.412;2023-01-29T09:07:33;8.30;54.70
66190;DHT22;52992;52.084;5.412;2023-01-29T09:10:00;8.30;54.80
66190;DHT22;52992;52.084;5.412;2023-01-29T09:12:27;8.30;54.70
66190;DHT22;52992;52.084;5.412;2023-01-29T09:14:53;8.40;54.60
66190;DHT22;52992;52.084;5.412;2023-01-29T09:17:20;8.40;54.50
66190;DHT22;52992;52.084;5.412;2023-01-29T09:19:47;8.40;54.70
66190;DHT22;52992;52.084;5.412;2023-01-29T09:22:14;8.40;54.50
66190;DHT22;52992;52.084;5.412;2023-01-29T09:24:41;8.50;54.50
66190;DHT22;52992;52.084;5.412;2023-01-29T09:27:07;8.50;54.50
66190;DHT22;52992;52.084;5.412;2023-01-29T09:29:35;8.50;54.50
66190;DHT22;52992;52.084;5.412;2023-01-29T09:32:03;8.60;54.30
66190;DHT22;52992;52.084;5.412;2023-01-29T09:34:30;8.60;54.10
66190;DHT22;52992;52.084;5.412;2023-01-29T09:36:57;8.60;54.10
66190;DHT22;52992;52.084;5.412;2023-01-29T09:39:24;8.60;54.20
66190;DHT22;52992;52.084;5.412;2023-01-29T09:47:19;8.70;54.30
66190;DHT22;52992;52.084;5.412;2023-01-29T09:49:50;8.70;53.90
66190;DHT22;52992;52.084;5.412;2023-01-29T09:52:29;8.70;54.00
66190;DHT22;52992;52.084;5.412;2023-01-29T09:55:04;8.60;53.60
66190;DHT22;52992;52.084;5.412;2023-01-29T10:00:19;8.70;53.80
66190;DHT22;52992;52.084;5.412;2023-01-29T10:02:58;8.80;53.70
66190;DHT22;52992;52.084;5.412;2023-01-29T10:05:57;8.80;53.50
66190;DHT22;52992;52.084;5.412;2023-01-29T10:08:49;8.90;53.40
66190;DHT22;52992;52.084;5.412;2023-01-29T10:25:04;8.90;53.50
66190;DHT22;52992;52.084;5.412;2023-01-29T10:27:34;8.90;53.70
66190;DHT22;52992;52.084;5.412;2023-01-29T10:30:07;9.00;53.50
66190;DHT22;52992;52.084;5.412;2023-01-29T10:32:37;8.90;53.20
66190;DHT22;52992;52.084;5.412;2023-01-29T10:35:23;8.90;53.20
66190;DHT22;52992;52.084;5.412;2023-01-29T10:37:52;8.80;53.10
66190;DHT22;52992;52.084;5.412;2023-01-29T10:40:36;8.80;53.30
66190;DHT22;52992;52.084;5.412;2023-01-29T10:43:34;8.80;53.30
66190;DHT22;52992;52.084;5.412;2023-01-29T10:52:07;8.80;53.40
66190;DHT22;52992;52.084;5.412;2023-01-29T10:54:53;8.90;53.20
66190;DHT22;52992;52.084;5.412;2023-01-29T11:00:22;9.00;53.10
66190;DHT22;52992;52.084;5.412;2023-01-29T11:02:50;9.00;52.90
66190;DHT22;52992;52.084;5.412;2023-01-29T11:05:33;9.00;53.00
66190;DHT22;52992;52.084;5.412;2023-01-29T11:08:13;9.10;52.90
66190;DHT22;52992;52.084;5.412;2023-01-29T11:13:47;9.20;52.80
66190;DHT22;52992;52.084;5.412;2023-01-29T11:16:14;9.20;52.60
66190;DHT22;52992;52.084;5.412;2023-01-29T11:18:56;9.20;52.70
66190;DHT22;52992;52.084;5.412;2023-01-29T11:21:24;9.20;52.90
66190;DHT22;52992;52.084;5.412;2023-01-29T11:24:05;9.20;52.90
66190;DHT22;52992;52.084;5.412;2023-01-29T11:26:36;9.30;52.70
66190;DHT22;52992;52.084;5.412;2023-01-29T11:29:03;9.40;52.60
66190;DHT22;52992;52.084;5.412;2023-01-29T11:31:37;9.40;52.40
66190;DHT22;52992;52.084;5.412;2023-01-29T11:34:17;9.40;52.50
66190;DHT22;52992;52.084;5.412;2023-01-29T11:36:44;9.40;52.70
66190;DHT22;52992;52.084;5.412;2023-01-29T11:39:20;9.30;52.80
66190;DHT22;52992;52.084;5.412;2023-01-29T11:42:03;9.30;52.80
66190;DHT22;52992;52.084;5.412;2023-01-29T11:44:40;9.30;53.00
66190;DHT22;52992;52.084;5.412;2023-01-29T11:49:51;9.20;53.20
66190;DHT22;52992;52.084;5.412;2023-01-29T11:52:22;9.20;53.60
66190;DHT22;52992;52.084;5.412;2023-01-29T11:54:52;9.10;53.60
66190;DHT22;52992;52.084;5.412;2023-01-29T11:57:33;9.10;53.60
66190;DHT22;52992;52.084;5.412;2023-01-29T12:00:04;9.10;53.70
66190;DHT22;52992;52.084;5.412;2023-01-29T12:02:41;9.20;53.60
66190;DHT22;52992;52.084;5.412;2023-01-29T12:05:15;9.20;53.70
66190;DHT22;52992;52.084;5.412;2023-01-29T12:07:44;9.20;53.70
66190;DHT22;52992;52.084;5.412;2023-01-29T12:10:39;9.20;53.60
66190;DHT22;52992;52.084;5.412;2023-01-29T12:13:25;9.20;53.80
66190;DHT22;52992;52.084;5.412;2023-01-29T12:18:45;9.20;53.80
66190;DHT22;52992;52.084;5.412;2023-01-29T12:23:52;9.10;54.00
66190;DHT22;52992;52.084;5.412;2023-01-29T12:26:28;9.10;54.30
66190;DHT22;52992;52.084;5.412;2023-01-29T12:34:26;9.20;54.30
66190;DHT22;52992;52.084;5.412;2023-01-29T12:37:10;9.10;54.40
66190;DHT22;52992;52.084;5.412;2023-01-29T12:39:39;9.00;54.40
66190;DHT22;52992;52.084;5.412;2023-01-29T12:42:22;9.10;54.70
66190;DHT22;52992;52.084;5.412;2023-01-29T12:44:57;9.00;54.70
66190;DHT22;52992;52.084;5.412;2023-01-29T12:47:55;9.00;54.40
66190;DHT22;52992;52.084;5.412;2023-01-29T12:50:32;9.00;54.60
66190;DHT22;52992;52.084;5.412;2023-01-29T12:53:01;9.10;54.60
66190;DHT22;52992;52.084;5.412;2023-01-29T12:55:45;9.10;54.30
66190;DHT22;52992;52.084;5.412;2023-01-29T13:00:53;9.00;54.90
66190;DHT22;52992;52.084;5.412;2023-01-29T13:03:28;8.90;55.10
66190;DHT22;52992;52.084;5.412;2023-01-29T13:06:02;8.90;55.00
66190;DHT22;52992;52.084;5.412;2023-01-29T13:08:45;8.90;55.20
66190;DHT22;52992;52.084;5.412;2023-01-29T13:11:23;8.90;55.40
66190;DHT22;52992;52.084;5.412;2023-01-29T13:14:17;8.90;55.30
66190;DHT22;52992;52.084;5.412;2023-01-29T13:16:47;8.90;55.40
66190;DHT22;52992;52.084;5.412;2023-01-29T13:19:30;8.90;55.40
66190;DHT22;52992;52.084;5.412;2023-01-29T13:22:01;9.00;55.30
66190;DHT22;52992;52.084;5.412;2023-01-29T13:24:38;9.00;54.90
66190;DHT22;52992;52.084;5.412;2023-01-29T13:27:06;9.10;55.00
66190;DHT22;52992;52.084;5.412;2023-01-29T13:29:33;9.10;55.00
66190;DHT22;52992;52.084;5.412;2023-01-29T13:32:02;9.20;55.10
66190;DHT22;52992;52.084;5.412;2023-01-29T13:34:32;9.20;54.90
66190;DHT22;52992;52.084;5.412;2023-01-29T13:37:03;9.40;54.50
66190;DHT22;52992;52.084;5.412;2023-01-29T13:39:36;9.40;54.30
66190;DHT22;52992;52.084;5.412;2023-01-29T13:44:47;9.50;54.10
66190;DHT22;52992;52.084;5.412;2023-01-29T13:47:32;9.50;54.10
66190;DHT22;52992;52.084;5.412;2023-01-29T13:50:06;9.50;54.40
66190;DHT22;52992;52.084;5.412;2023-01-29T13:52:51;9.50;54.40
66190;DHT22;52992;52.084;5.412;2023-01-29T13:55:26;9.50;54.40
66190;DHT22;52992;52.084;5.412;2023-01-29T13:58:00;9.50;54.40
66190;DHT22;52992;52.084;5.412;2023-01-29T14:10:41;9.60;54.30
66190;DHT22;52992;52.084;5.412;2023-01-29T14:15:45;9.60;54.40
66190;DHT22;52992;52.084;5.412;2023-01-29T14:18:33;9.60;54.40
66190;DHT22;52992;52.084;5.412;2023-01-29T14:21:19;9.60;54.60
66190;DHT22;52992;52.084;5.412;2023-01-29T14:23:49;9.60;54.70
66190;DHT22;52992;52.084;5.412;2023-01-29T14:29:05;9.70;54.60
66190;DHT22;52992;52.084;5.412;2023-01-29T14:34:05;9.70;54.70
66190;DHT22;52992;52.084;5.412;2023-01-29T14:36:39;9.60;54.90
66190;DHT22;52992;52.084;5.412;2023-01-29T14:39:32;9.60;55.00
66190;DHT22;52992;52.084;5.412;2023-01-29T14:42:04;9.60;55.00
66190;DHT22;52992;52.084;5.412;2023-01-29T14:58:40;9.60;55.50
66190;DHT22;52992;52.084;5.412;2023-01-29T15:01:27;9.50;55.60
66190;DHT22;52992;52.084;5.412;2023-01-29T15:06:43;9.50;56.00
66190;DHT22;52992;52.084;5.412;2023-01-29T15:09:15;9.40;56.10
66190;DHT22;52992;52.084;5.412;2023-01-29T15:11:49;9.40;56.20
66190;DHT22;52992;52.084;5.412;2023-01-29T15:14:31;9.40;56.00
66190;DHT22;52992;52.084;5.412;2023-01-29T15:17:17;9.50;56.20
66190;DHT22;52992;52.084;5.412;2023-01-29T15:19:46;9.50;55.90
66190;DHT22;52992;52.084;5.412;2023-01-29T15:22:21;9.60;55.80
66190;DHT22;52992;52.084;5.412;2023-01-29T15:25:08;9.60;55.70
66190;DHT22;52992;52.084;5.412;2023-01-29T15:27:40;9.60;55.70
66190;DHT22;52992;52.084;5.412;2023-01-29T15:30:14;9.50;55.80
66190;DHT22;52992;52.084;5.412;2023-01-29T15:32:41;9.50;56.10
66190;DHT22;52992;52.084;5.412;2023-01-29T15:35:22;9.40;56.20
66190;DHT22;52992;52.084;5.412;2023-01-29T15:38:13;9.40;56.20
66190;DHT22;52992;52.084;5.412;2023-01-29T15:40:41;9.40;56.30
66190;DHT22;52992;52.084;5.412;2023-01-29T15:45:49;9.30;56.70
66190;DHT22;52992;52.084;5.412;2023-01-29T15:48:21;9.30;56.60
66190;DHT22;52992;52.084;5.412;2023-01-29T15:50:53;9.40;56.50
66190;DHT22;52992;52.084;5.412;2023-01-29T15:53:24;9.30;56.50
66190;DHT22;52992;52.084;5.412;2023-01-29T15:55:52;9.40;56.40
66190;DHT22;52992;52.084;5.412;2023-01-29T15:58:28;9.30;56.40
66190;DHT22;52992;52.084;5.412;2023-01-29T16:00:57;9.30;56.50
66190;DHT22;52992;52.084;5.412;2023-01-29T16:03:27;9.30;56.50
66190;DHT22;52992;52.084;5.412;2023-01-29T16:05:56;9.30;56.50
66190;DHT22;52992;52.084;5.412;2023-01-29T16:08:25;9.20;56.60
66190;DHT22;52992;52.084;5.412;2023-01-29T16:10:58;9.20;56.80
66190;DHT22;52992;52.084;5.412;2023-01-29T16:13:38;9.20;56.70
66190;DHT22;52992;52.084;5.412;2023-01-29T16:16:23;9.20;56.90
66190;DHT22;52992;52.084;5.412;2023-01-29T16:18:51;9.20;57.10
66190;DHT22;52992;52.084;5.412;2023-01-29T16:21:33;9.20;57.00
66190;DHT22;52992;52.084;5.412;2023-01-29T16:24:09;9.20;57.20
66190;DHT22;52992;52.084;5.412;2023-01-29T16:26:42;9.10;57.30
66190;DHT22;52992;52.084;5.412;2023-01-29T16:29:13;9.20;57.50
66190;DHT22;52992;52.084;5.412;2023-01-29T16:31:42;9.10;57.70
66190;DHT22;52992;52.084;5.412;2023-01-29T16:34:18;9.00;57.80
66190;DHT22;52992;52.084;5.412;2023-01-29T16:36:50;9.00;58.00
66190;DHT22;52992;52.084;5.412;2023-01-29T16:39:24;9.00;58.20
66190;DHT22;52992;52.084;5.412;2023-01-29T16:44:44;9.00;58.30
66190;DHT22;52992;52.084;5.412;2023-01-29T16:47:13;9.00;58.30
66190;DHT22;52992;52.084;5.412;2023-01-29T16:49:48;9.00;58.30
66190;DHT22;52992;52.084;5.412;2023-01-29T16:52:18;9.00;58.40
66190;DHT22;52992;52.084;5.412;2023-01-29T16:54:45;8.90;58.50
66190;DHT22;52992;52.084;5.412;2023-01-29T16:57:18;8.90;58.60
66190;DHT22;52992;52.084;5.412;2023-01-29T16:59:47;9.00;58.50
66190;DHT22;52992;52.084;5.412;2023-01-29T17:02:22;8.90;58.50
66190;DHT22;52992;52.084;5.412;2023-01-29T17:04:54;8.90;58.70
66190;DHT22;52992;52.084;5.412;2023-01-29T17:07:22;8.90;58.80
66190;DHT22;52992;52.084;5.412;2023-01-29T17:09:55;8.80;58.80
66190;DHT22;52992;52.084;5.412;2023-01-29T17:12:25;8.80;59.10
66190;DHT22;52992;52.084;5.412;2023-01-29T17:15:01;8.70;59.00
66190;DHT22;52992;52.084;5.412;2023-01-29T17:17:30;8.70;59.30
66190;DHT22;52992;52.084;5.412;2023-01-29T17:20:10;8.70;59.10
66190;DHT22;52992;52.084;5.412;2023-01-29T17:22:38;8.70;59.00
66190;DHT22;52992;52.084;5.412;2023-01-29T17:25:05;8.80;58.80
66190;DHT22;52992;52.084;5.412;2023-01-29T17:27:34;8.70;58.90
66190;DHT22;52992;52.084;5.412;2023-01-29T17:30:06;8.70;58.80
66190;DHT22;52992;52.084;5.412;2023-01-29T17:32:33;8.80;58.60
66190;DHT22;52992;52.084;5.412;2023-01-29T17:35:14;8.80;59.40
66190;DHT22;52992;52.084;5.412;2023-01-29T17:37:42;8.80;58.40
66190;DHT22;52992;52.084;5.412;2023-01-29T17:42:59;8.80;58.30
66190;DHT22;52992;52.084;5.412;2023-01-29T17:45:26;8.80;58.10
66190;DHT22;52992;52.084;5.412;2023-01-29T17:47:53;8.80;57.90
66190;DHT22;52992;52.084;5.412;2023-01-29T17:50:27;8.80;58.00
66190;DHT22;52992;52.084;5.412;2023-01-29T17:52:55;8.80;57.90
66190;DHT22;52992;52.084;5.412;2023-01-29T17:55:22;8.80;57.90
66190;DHT22;52992;52.084;5.412;2023-01-29T17:57:49;8.80;57.90
66190;DHT22;52992;52.084;5.412;2023-01-29T18:00:21;8.80;58.00
66190;DHT22;52992;52.084;5.412;2023-01-29T18:02:49;8.70;57.90
66190;DHT22;52992;52.084;5.412;2023-01-29T18:05:17;8.70;57.90
66190;DHT22;52992;52.084;5.412;2023-01-29T18:07:44;8.70;58.00
66190;DHT22;52992;52.084;5.412;2023-01-29T18:10:17;8.80;57.80
66190;DHT22;52992;52.084;5.412;2023-01-29T18:12:45;8.80;57.80
66190;DHT22;52992;52.084;5.412;2023-01-29T18:15:12;8.80;57.70
66190;DHT22;52992;52.084;5.412;2023-01-29T18:17:40;8.80;57.50
66190;DHT22;52992;52.084;5.412;2023-01-29T18:20:19;8.80;57.70
66190;DHT22;52992;52.084;5.412;2023-01-29T18:22:46;8.80;57.60
66190;DHT22;52992;52.084;5.412;2023-01-29T18:25:14;8.80;57.60
66190;DHT22;52992;52.084;5.412;2023-01-29T18:27:41;8.80;57.70
66190;DHT22;52992;52.084;5.412;2023-01-29T18:30:10;8.90;57.70
66190;DHT22;52992;52.084;5.412;2023-01-29T18:32:37;8.90;57.60
66190;DHT22;52992;52.084;5.412;2023-01-29T18:35:05;8.90;57.60
66190;DHT22;52992;52.084;5.412;2023-01-29T18:37:33;8.80;58.50
66190;DHT22;52992;52.084;5.412;2023-01-29T18:40:00;8.80;57.80
66190;DHT22;52992;52.084;5.412;2023-01-29T18:42:30;8.90;57.70
66190;DHT22;52992;52.084;5.412;2023-01-29T18:44:57;8.90;57.70
66190;DHT22;52992;52.084;5.412;2023-01-29T18:47:24;8.90;58.00